createdAt,value
2022-10-23T00:01:20.902Z,98425.95
2022-10-23T00:04:27.212Z,98432.26
2022-10-23T00:10:41.380Z,98436.42
2022-10-23T00:13:45.239Z,98446.20
2022-10-23T00:16:48.241Z,98448.48
2022-10-23T00:19:51.175Z,98444.55
2022-10-23T00:22:54.196Z,98443.92
2022-10-23T00:25:57.122Z,98438.39
2022-10-23T00:29:00.332Z,98436.11
2022-10-23T00:32:03.329Z,98439.42
2022-10-23T00:35:06.591Z,98443.45
2022-10-23T00:38:10.831Z,98444.23
2022-10-23T00:41:21.376Z,98445.34
2022-10-23T00:44:24.199Z,98442.05
2022-10-23T00:47:27.143Z,98445.91
2022-10-23T00:50:32.998Z,98439.92
2022-10-23T00:53:35.818Z,98441.73
2022-10-23T00:56:42.001Z,98440.41
2022-10-23T00:59:44.925Z,98440.48
2022-10-23T01:02:48.064Z,98444.73
2022-10-23T01:05:54.145Z,98436.62
2022-10-23T01:09:05.126Z,98440.80
2022-10-23T01:12:33.660Z,98441.66
2022-10-23T01:15:45.770Z,98446.86
2022-10-23T01:19:07.428Z,98451.66
2022-10-23T01:22:28.137Z,98455.52
2022-10-23T01:25:46.354Z,98455.59
2022-10-23T01:29:20.164Z,98452.84
2022-10-23T01:32:40.503Z,98447.64
2022-10-23T01:35:48.526Z,98448.73
2022-10-23T01:39:00.494Z,98451.17
2022-10-23T01:42:15.716Z,98452.68
2022-10-23T01:45:30.242Z,98449.54
2022-10-23T01:48:35.934Z,98451.41
2022-10-23T01:51:41.483Z,98451.35
2022-10-23T01:54:47.709Z,98448.03
2022-10-23T01:57:53.018Z,98449.52
2022-10-23T02:01:01.585Z,98445.36
2022-10-23T02:04:08.729Z,98441.66
2022-10-23T02:07:11.806Z,98439.85
2022-10-23T02:10:15.923Z,98442.38
2022-10-23T02:13:27.813Z,98443.01
2022-10-23T02:16:50.717Z,98441.58
2022-10-23T02:20:12.565Z,98448.91
2022-10-23T02:23:22.470Z,98455.28
2022-10-23T02:26:30.580Z,98459.30
2022-10-23T02:29:45.195Z,98465.30
2022-10-23T02:32:52.427Z,98470.80
2022-10-23T02:35:55.348Z,98471.27
2022-10-23T02:38:59.067Z,98471.83
2022-10-23T02:42:22.103Z,98476.54
2022-10-23T02:45:35.062Z,98472.52
2022-10-23T02:49:04.866Z,98477.48
2022-10-23T02:52:16.089Z,98475.43
2022-10-23T02:55:32.630Z,98478.60
2022-10-23T02:58:59.379Z,98477.48
2022-10-23T03:02:26.162Z,98483.71
2022-10-23T03:05:39.143Z,98474.81
2022-10-23T03:08:50.004Z,98475.21
2022-10-23T03:11:54.254Z,98475.70
2022-10-23T03:14:57.152Z,98478.52
2022-10-23T03:18:01.212Z,98483.80
2022-10-23T03:21:04.118Z,98483.66
2022-10-23T03:24:09.426Z,98482.39
2022-10-23T03:27:18.276Z,98483.02
2022-10-23T03:30:21.198Z,98486.48
2022-10-23T03:33:26.224Z,98483.16
2022-10-23T03:36:29.314Z,98479.48
2022-10-23T03:39:32.391Z,98490.02
2022-10-23T03:42:35.201Z,98491.84
2022-10-23T03:45:38.606Z,98501.60
2022-10-23T03:48:42.154Z,98503.89
2022-10-23T03:51:51.938Z,98501.36
2022-10-23T03:54:56.815Z,98507.20
2022-10-23T03:57:59.785Z,98503.73
2022-10-23T04:01:02.933Z,98502.16
2022-10-23T04:04:05.887Z,98497.67
2022-10-23T04:07:08.901Z,98492.16
2022-10-23T04:10:12.039Z,98488.86
2022-10-23T04:13:15.384Z,98483.66
2022-10-23T04:16:18.517Z,98485.31
2022-10-23T04:19:21.410Z,98488.08
2022-10-23T04:22:27.466Z,98485.08
2022-10-23T04:25:31.471Z,98484.85
2022-10-23T04:28:34.434Z,98484.85
2022-10-23T04:31:37.466Z,98485.57
2022-10-23T04:34:40.348Z,98486.58
2022-10-23T04:37:44.015Z,98483.67
2022-10-23T04:40:47.064Z,98489.33
2022-10-23T04:43:55.324Z,98482.64
2022-10-23T04:46:58.244Z,98482.49
2022-10-23T04:50:01.330Z,98486.74
2022-10-23T04:53:23.254Z,98486.02
2022-10-23T04:57:04.921Z,98487.05
2022-10-23T05:00:24.020Z,98489.81
2022-10-23T05:03:29.946Z,98482.34
2022-10-23T05:06:33.417Z,98480.76
2022-10-23T05:10:03.567Z,98483.27
2022-10-23T05:13:23.956Z,98487.76
2022-10-23T05:16:47.049Z,98494.77
2022-10-23T05:19:54.619Z,98499.17
2022-10-23T05:23:00.593Z,98501.75
2022-10-23T05:26:04.951Z,98498.07
2022-10-23T05:29:08.261Z,98501.77
2022-10-23T05:32:14.317Z,98501.84
2022-10-23T05:35:23.220Z,98509.64
2022-10-23T05:38:29.350Z,98511.36
2022-10-23T05:41:32.462Z,98510.34
2022-10-23T05:44:35.575Z,98512.55
2022-10-23T05:47:56.530Z,98514.91
2022-10-23T05:51:24.149Z,98516.95
2022-10-23T05:54:37.526Z,98519.08
2022-10-23T05:57:56.822Z,98526.33
2022-10-23T06:01:23.222Z,98525.85
2022-10-23T06:04:38.190Z,98527.81
2022-10-23T06:07:50.069Z,98535.22
2022-10-23T06:10:54.007Z,98540.41
2022-10-23T06:17:04.822Z,98544.90
2022-10-23T06:20:13.674Z,98552.14
2022-10-23T06:23:17.289Z,98554.58
2022-10-23T06:26:35.314Z,98558.98
2022-10-23T06:29:53.052Z,98561.58
2022-10-23T06:32:56.057Z,98563.00
2022-10-23T06:35:59.456Z,98560.41
2022-10-23T06:39:02.374Z,98564.02
2022-10-23T06:42:24.773Z,98564.02
2022-10-23T06:45:32.606Z,98561.90
2022-10-23T06:48:50.410Z,98570.39
2022-10-23T06:51:59.939Z,98571.19
2022-10-23T06:55:03.099Z,98569.54
2022-10-23T06:58:10.992Z,98570.08
2022-10-23T07:01:23.993Z,98566.55
2022-10-23T07:04:27.081Z,98560.48
2022-10-23T07:07:30.769Z,98556.52
2022-10-23T07:10:34.668Z,98555.89
2022-10-23T07:13:38.951Z,98556.75
2022-10-23T07:16:53.437Z,98562.48
2022-10-23T07:19:57.541Z,98566.56
2022-10-23T07:23:00.623Z,98565.45
2022-10-23T07:26:15.320Z,98568.67
2022-10-23T07:29:18.522Z,98560.33
2022-10-23T07:32:23.996Z,98563.30
2022-10-23T07:35:35.577Z,98561.09
2022-10-23T07:38:44.280Z,98559.35
2022-10-23T07:41:47.217Z,98559.90
2022-10-23T07:44:50.459Z,98569.58
2022-10-23T07:47:53.762Z,98579.98
2022-10-23T07:51:08.632Z,98581.58
2022-10-23T07:54:15.308Z,98581.96
2022-10-23T07:57:50.088Z,98584.16
2022-10-23T08:01:39.782Z,98584.55
2022-10-23T08:04:43.359Z,98586.50
2022-10-23T08:07:54.902Z,98581.46
2022-10-23T08:10:58.589Z,98571.99
2022-10-23T08:14:06.274Z,98566.89
2022-10-23T08:17:10.077Z,98566.33
2022-10-23T08:20:32.006Z,98568.84
2022-10-23T08:23:35.230Z,98567.89
2022-10-23T08:26:38.404Z,98578.05
2022-10-23T08:29:41.678Z,98577.81
2022-10-23T08:32:44.935Z,98581.42
2022-10-23T08:35:49.780Z,98586.13
2022-10-23T08:38:59.858Z,98590.45
2022-10-23T08:42:03.124Z,98592.64
2022-10-23T08:45:14.047Z,98601.05
2022-10-23T08:48:28.714Z,98600.77
2022-10-23T08:51:54.930Z,98601.16
2022-10-23T08:55:23.357Z,98602.41
2022-10-23T08:58:50.416Z,98607.06
2022-10-23T09:02:02.152Z,98605.62
2022-10-23T09:05:31.775Z,98609.95
2022-10-23T09:08:53.009Z,98619.55
2022-10-23T09:12:21.229Z,98621.90
2022-10-23T09:15:39.395Z,98623.09
2022-10-23T09:18:43.172Z,98625.13
2022-10-23T09:21:50.039Z,98622.11
2022-10-23T09:24:53.964Z,98623.12
2022-10-23T09:28:02.903Z,98616.41
2022-10-23T09:31:12.258Z,98611.81
2022-10-23T09:34:21.385Z,98611.07
2022-10-23T09:37:30.500Z,98616.16
2022-10-23T09:40:42.353Z,98616.17
2022-10-23T09:43:45.897Z,98621.61
2022-10-23T09:49:59.719Z,98631.62
2022-10-23T09:53:02.975Z,98642.59
2022-10-23T09:56:28.421Z,98644.19
2022-10-23T09:59:32.503Z,98642.95
2022-10-23T10:02:37.495Z,98639.42
2022-10-23T10:06:03.329Z,98634.85
2022-10-23T10:09:13.307Z,98626.81
2022-10-23T10:12:31.483Z,98617.02
2022-10-23T10:15:46.549Z,98614.49
2022-10-23T10:19:07.082Z,98612.98
2022-10-23T10:22:35.369Z,98616.52
2022-10-23T10:25:59.226Z,98608.93
2022-10-23T10:29:20.078Z,98604.72
2022-10-23T10:32:59.120Z,98594.05
2022-10-23T10:36:08.508Z,98587.71
2022-10-23T10:39:19.747Z,98587.85
2022-10-23T10:42:58.734Z,98577.95
2022-10-23T10:46:28.730Z,98576.64
2022-10-23T10:49:53.197Z,98577.19
2022-10-23T10:53:17.573Z,98575.02
2022-10-23T10:56:26.270Z,98581.09
2022-10-23T10:59:32.081Z,98580.76
2022-10-23T11:02:47.116Z,98570.80
2022-10-23T11:05:51.319Z,98565.98
2022-10-23T11:09:09.268Z,98559.64
2022-10-23T11:12:24.149Z,98553.36
2022-10-23T11:15:45.946Z,98549.94
2022-10-23T11:19:09.846Z,98550.92
2022-10-23T11:22:32.165Z,98545.47
2022-10-23T11:25:50.208Z,98542.76
2022-10-23T11:29:16.560Z,98531.52
2022-10-23T11:32:44.405Z,98528.09
2022-10-23T11:36:06.230Z,98531.00
2022-10-23T11:39:21.621Z,98524.28
2022-10-23T11:42:48.900Z,98519.53
2022-10-23T11:45:52.051Z,98510.84
2022-10-23T11:48:56.680Z,98506.15
2022-10-23T11:52:06.145Z,98498.44
2022-10-23T11:55:29.419Z,98490.79
2022-10-23T11:58:50.404Z,98482.83
2022-10-23T12:01:55.163Z,98473.08
2022-10-23T12:05:03.076Z,98466.54
2022-10-23T12:08:19.340Z,98459.31
2022-10-23T12:11:44.141Z,98462.17
2022-10-23T12:14:51.698Z,98466.98
2022-10-23T12:18:06.973Z,98466.83
2022-10-23T12:21:17.229Z,98469.05
2022-10-23T12:24:49.491Z,98464.70
2022-10-23T12:28:06.027Z,98470.21
2022-10-23T12:31:37.393Z,98466.83
2022-10-23T12:35:09.889Z,98463.98
2022-10-23T12:38:13.229Z,98461.00
2022-10-23T12:41:27.531Z,98460.43
2022-10-23T12:44:31.028Z,98448.12
2022-10-23T12:47:34.185Z,98441.79
2022-10-23T12:50:37.411Z,98439.17
2022-10-23T12:53:40.477Z,98436.09
2022-10-23T12:56:45.265Z,98440.52
2022-10-23T12:59:48.989Z,98440.98
2022-10-23T13:03:02.406Z,98436.69
2022-10-23T13:06:05.487Z,98428.24
2022-10-23T13:09:22.212Z,98431.08
2022-10-23T13:12:50.743Z,98430.84
2022-10-23T13:15:53.668Z,98433.05
2022-10-23T13:18:56.597Z,98429.40
2022-10-23T13:22:00.905Z,98423.55
2022-10-23T13:25:20.864Z,98422.77
2022-10-23T13:28:27.142Z,98422.91
2022-10-23T13:31:33.928Z,98418.22
2022-10-23T13:34:37.005Z,98416.61
2022-10-23T13:37:40.069Z,98410.84
2022-10-23T13:40:43.202Z,98405.76
2022-10-23T13:43:47.414Z,98401.79
2022-10-23T13:46:52.196Z,98401.69
2022-10-23T13:49:55.070Z,98401.52
2022-10-23T13:52:58.499Z,98402.60
2022-10-23T13:56:01.543Z,98399.02
2022-10-23T13:59:04.477Z,98391.91
2022-10-23T14:02:24.443Z,98384.58
2022-10-23T14:05:27.444Z,98384.73
2022-10-23T14:08:30.345Z,98380.08
2022-10-23T14:11:34.346Z,98382.39
2022-10-23T14:14:37.363Z,98386.29
2022-10-23T14:17:40.604Z,98385.61
2022-10-23T14:20:43.490Z,98385.70
2022-10-23T14:23:48.170Z,98384.92
2022-10-23T14:26:51.199Z,98387.23
2022-10-23T14:29:54.112Z,98388.06
2022-10-23T14:32:57.045Z,98384.92
2022-10-23T14:36:00.210Z,98378.95
2022-10-23T14:39:03.102Z,98384.98
2022-10-23T14:42:06.094Z,98381.54
2022-10-23T14:45:09.562Z,98376.29
2022-10-23T14:48:12.517Z,98373.15
2022-10-23T14:51:25.524Z,98373.98
2022-10-23T14:54:29.452Z,98374.70
2022-10-23T14:57:32.459Z,98372.13
2022-10-23T15:00:35.359Z,98368.27
2022-10-23T15:03:38.354Z,98368.61
2022-10-23T15:06:42.093Z,98365.39
2022-10-23T15:09:45.103Z,98363.04
2022-10-23T15:12:48.669Z,98359.14
2022-10-23T15:16:01.542Z,98359.27
2022-10-23T15:19:04.533Z,98359.87
2022-10-23T15:22:07.498Z,98359.45
2022-10-23T15:25:13.128Z,98358.31
2022-10-23T15:28:18.472Z,98360.81
2022-10-23T15:31:41.472Z,98358.48
2022-10-23T15:34:47.971Z,98363.51
2022-10-23T15:37:50.995Z,98359.52
2022-10-23T15:41:03.977Z,98358.30
2022-10-23T15:44:09.214Z,98354.66
2022-10-23T15:47:12.132Z,98353.42
2022-10-23T15:50:15.139Z,98354.58
2022-10-23T15:53:18.169Z,98353.20
2022-10-23T15:56:21.138Z,98355.30
2022-10-23T15:59:25.311Z,98358.73
2022-10-23T16:02:28.324Z,98361.77
2022-10-23T16:05:31.379Z,98369.38
2022-10-23T16:08:34.672Z,98371.25
2022-10-23T16:11:39.969Z,98369.25
2022-10-23T16:14:43.277Z,98370.88
2022-10-23T16:17:46.573Z,98382.27
2022-10-23T16:20:55.198Z,98379.63
2022-10-23T16:24:00.890Z,98381.32
2022-10-23T16:27:03.924Z,98383.56
2022-10-23T16:30:09.552Z,98380.21
2022-10-23T16:33:13.771Z,98378.29
2022-10-23T16:36:17.921Z,98377.84
2022-10-23T16:39:39.473Z,98381.27
2022-10-23T16:43:17.849Z,98381.06
2022-10-23T16:46:30.054Z,98385.48
2022-10-23T16:49:33.099Z,98383.78
2022-10-23T16:52:36.040Z,98374.34
2022-10-23T16:55:40.799Z,98384.85
2022-10-23T16:58:44.457Z,98397.15
2022-10-23T17:01:48.097Z,98399.38
2022-10-23T17:04:51.178Z,98401.57
2022-10-23T17:07:54.612Z,98405.48
2022-10-23T17:11:28.262Z,98410.91
2022-10-23T17:14:31.258Z,98419.80
2022-10-23T17:17:34.275Z,98417.18
2022-10-23T17:20:37.281Z,98411.48
2022-10-23T17:23:41.222Z,98406.19
2022-10-23T17:26:44.256Z,98407.27
2022-10-23T17:29:47.426Z,98409.25
2022-10-23T17:32:50.599Z,98412.47
2022-10-23T17:35:53.563Z,98405.60
2022-10-23T17:38:57.214Z,98396.86
2022-10-23T17:42:00.125Z,98391.19
2022-10-23T17:45:03.295Z,98383.46
2022-10-23T17:48:06.528Z,98383.94
2022-10-23T17:51:19.469Z,98379.38
2022-10-23T17:54:23.835Z,98374.73
2022-10-23T17:57:26.711Z,98375.05
2022-10-23T18:00:29.603Z,98374.29
2022-10-23T18:03:33.160Z,98374.77
2022-10-23T18:06:56.257Z,98375.39
2022-10-23T18:09:59.123Z,98365.45
2022-10-23T18:13:02.704Z,98364.27
2022-10-23T18:16:08.267Z,98364.56
2022-10-23T18:19:11.225Z,98365.34
2022-10-23T18:22:14.116Z,98367.16
2022-10-23T18:25:16.992Z,98361.14
2022-10-23T18:28:20.461Z,98359.09
2022-10-23T18:31:27.957Z,98359.15
2022-10-23T18:34:30.902Z,98357.03
2022-10-23T18:37:36.586Z,98350.25
2022-10-23T18:40:43.491Z,98347.91
2022-10-23T18:43:46.682Z,98344.06
2022-10-23T18:46:50.056Z,98349.98
2022-10-23T18:49:53.217Z,98354.27
2022-10-23T18:52:57.284Z,98348.55
2022-10-23T18:56:00.835Z,98335.94
2022-10-23T18:59:05.863Z,98330.67
2022-10-23T19:02:10.890Z,98324.79
2022-10-23T19:05:13.867Z,98321.34
2022-10-23T19:08:17.091Z,98324.02
2022-10-23T19:11:23.079Z,98327.75
2022-10-23T19:14:28.747Z,98331.23
2022-10-23T19:17:32.653Z,98337.00
2022-10-23T19:20:36.159Z,98334.49
2022-10-23T19:23:42.040Z,98336.63
2022-10-23T19:26:45.057Z,98343.58
2022-10-23T19:29:50.288Z,98336.65
2022-10-23T19:32:53.344Z,98330.05
2022-10-23T19:35:56.208Z,98332.41
2022-10-23T19:38:59.027Z,98330.27
2022-10-23T19:42:01.925Z,98337.04
2022-10-23T19:45:06.790Z,98344.03
2022-10-23T19:48:09.805Z,98340.55
2022-10-23T19:51:13.575Z,98343.46
2022-10-23T19:54:16.628Z,98338.50
2022-10-23T19:57:22.470Z,98332.28
2022-10-23T20:00:25.777Z,98329.27
2022-10-23T20:03:28.628Z,98320.71
2022-10-23T20:06:34.724Z,98312.52
2022-10-23T20:09:37.731Z,98305.27
2022-10-23T20:12:44.440Z,98302.05
2022-10-23T20:15:55.296Z,98307.56
2022-10-23T20:18:58.742Z,98303.56
2022-10-23T20:22:01.647Z,98300.48
2022-10-23T20:25:05.140Z,98296.45
2022-10-23T20:28:10.273Z,98292.42
2022-10-23T20:31:16.421Z,98290.30
2022-10-23T20:34:19.655Z,98285.58
2022-10-23T20:37:22.823Z,98284.48
2022-10-23T20:40:25.665Z,98277.80
2022-10-23T20:43:28.587Z,98273.53
2022-10-23T20:46:32.125Z,98281.02
2022-10-23T20:49:35.117Z,98280.09
2022-10-23T20:52:38.035Z,98286.02
2022-10-23T20:55:42.607Z,98296.98
2022-10-23T20:58:45.767Z,98293.86
2022-10-23T21:01:51.160Z,98280.33
2022-10-23T21:04:54.191Z,98282.63
2022-10-23T21:07:57.033Z,98280.83
2022-10-23T21:10:59.920Z,98274.30
2022-10-23T21:14:03.793Z,98270.95
2022-10-23T21:17:08.624Z,98275.70
2022-10-23T21:20:11.463Z,98285.95
2022-10-23T21:23:14.349Z,98288.16
2022-10-23T21:26:19.515Z,98279.36
2022-10-23T21:29:22.407Z,98276.32
2022-10-23T21:32:25.291Z,98274.44
2022-10-23T21:35:30.053Z,98275.48
2022-10-23T21:38:33.614Z,98270.28
2022-10-23T21:41:36.573Z,98262.36
2022-10-23T21:44:39.568Z,98260.09
2022-10-23T21:47:43.256Z,98256.70
2022-10-23T21:50:46.424Z,98249.47
2022-10-23T21:53:50.387Z,98252.85
2022-10-23T21:56:53.964Z,98242.70
2022-10-23T21:59:57.053Z,98246.17
2022-10-23T22:03:00.423Z,98233.00
2022-10-23T22:06:03.395Z,98231.67
2022-10-23T22:09:07.158Z,98234.27
2022-10-23T22:12:11.399Z,98232.55
2022-10-23T22:15:14.358Z,98235.52
2022-10-23T22:18:17.191Z,98228.75
2022-10-23T22:21:23.387Z,98223.88
2022-10-23T22:24:26.594Z,98211.59
2022-10-23T22:27:29.457Z,98213.56
2022-10-23T22:30:36.481Z,98229.23
2022-10-23T22:33:39.288Z,98225.84
2022-10-23T22:36:42.163Z,98218.20
2022-10-23T22:39:44.979Z,98221.34
2022-10-23T22:42:47.830Z,98222.36
2022-10-23T22:45:50.663Z,98222.77
2022-10-23T22:48:55.114Z,98222.61
2022-10-23T22:51:57.940Z,98224.20
2022-10-23T22:55:00.762Z,98217.34
2022-10-23T22:58:03.776Z,98208.84
2022-10-23T23:01:21.278Z,98208.15
2022-10-23T23:04:39.723Z,98202.10
2022-10-23T23:07:43.523Z,98190.14
2022-10-23T23:10:53.424Z,98190.39
2022-10-23T23:13:56.298Z,98191.73
2022-10-23T23:16:59.351Z,98193.55
2022-10-23T23:20:02.144Z,98198.67
2022-10-23T23:23:05.164Z,98196.77
2022-10-23T23:26:09.032Z,98181.59
2022-10-23T23:29:12.232Z,98181.36
2022-10-23T23:32:15.043Z,98187.42
2022-10-23T23:35:19.328Z,98187.10
2022-10-23T23:38:22.347Z,98178.13
2022-10-23T23:41:27.125Z,98176.46
2022-10-23T23:44:30.087Z,98167.42
2022-10-23T23:47:32.976Z,98159.86
2022-10-23T23:50:36.092Z,98165.91
2022-10-23T23:53:38.922Z,98175.29
2022-10-23T23:56:41.879Z,98165.69
2022-10-23T23:59:44.689Z,98169.30
